createdAt,value
2022-08-22T00:00:13.655Z,3.90
2022-08-22T00:02:55.723Z,3.10
2022-08-22T00:03:09.032Z,3.53
2022-08-22T00:03:09.593Z,3.40
2022-08-22T00:05:51.029Z,3.87
2022-08-22T00:08:33.819Z,3.97
2022-08-22T00:11:19.605Z,3.90
2022-08-22T00:14:14.076Z,4.33
2022-08-22T00:16:59.575Z,3.73
2022-08-22T00:19:50.988Z,3.90
2022-08-22T00:22:40.485Z,4.77
2022-08-22T00:25:49.892Z,3.77
2022-08-22T00:28:43.076Z,3.93
2022-08-22T00:31:11.362Z,3.70
2022-08-22T00:41:43.020Z,5.00
2022-08-22T00:44:18.676Z,4.13
2022-08-22T00:47:25.072Z,3.87
2022-08-22T00:50:46.849Z,4.47
2022-08-22T00:53:51.505Z,4.27
2022-08-22T00:56:57.419Z,3.97
2022-08-22T00:59:30.337Z,3.90
2022-08-22T01:02:54.693Z,4.33
2022-08-22T01:05:23.035Z,3.73
2022-08-22T01:08:03.069Z,4.03
2022-08-22T01:11:13.823Z,4.27
2022-08-22T01:13:42.158Z,4.40
2022-08-22T01:16:54.769Z,4.27
2022-08-22T01:19:41.902Z,4.10
2022-08-22T01:22:52.425Z,4.10
2022-08-22T01:26:06.386Z,4.50
2022-08-22T01:28:45.560Z,4.40
2022-08-22T01:32:18.454Z,4.77
2022-08-22T01:35:05.209Z,4.37
2022-08-22T01:37:43.687Z,4.70
2022-08-22T01:40:54.859Z,4.93
2022-08-22T01:43:59.239Z,4.20
2022-08-22T01:47:02.264Z,4.97
2022-08-22T01:49:50.457Z,4.40
2022-08-22T01:52:30.341Z,4.90
2022-08-22T01:55:03.517Z,4.13
2022-08-22T01:57:32.216Z,4.43
2022-08-22T02:00:07.000Z,4.20
2022-08-22T02:03:04.353Z,5.30
2022-08-22T02:05:51.517Z,5.23
2022-08-22T02:08:22.819Z,4.67
2022-08-22T02:11:06.031Z,4.40
2022-08-22T02:13:38.188Z,5.10
2022-08-22T02:16:24.464Z,4.67
2022-08-22T02:19:14.961Z,4.80
2022-08-22T02:21:43.352Z,4.40
2022-08-22T02:24:39.461Z,4.40
2022-08-22T02:27:44.179Z,4.93
2022-08-22T02:30:47.024Z,4.80
2022-08-22T02:33:39.188Z,5.03
2022-08-22T02:36:34.261Z,4.90
2022-08-22T02:39:28.677Z,4.67
2022-08-22T02:42:23.792Z,4.90
2022-08-22T02:45:41.323Z,5.37
2022-08-22T02:48:18.356Z,5.00
2022-08-22T02:50:49.696Z,5.00
2022-08-22T02:54:24.765Z,4.70
2022-08-22T02:57:20.402Z,5.07
2022-08-22T03:00:30.877Z,5.23
2022-08-22T03:03:17.222Z,5.50
2022-08-22T03:05:45.626Z,4.70
2022-08-22T03:08:25.470Z,4.73
2022-08-22T03:11:37.642Z,4.17
2022-08-22T03:14:15.794Z,5.03
2022-08-22T03:17:23.367Z,5.07
2022-08-22T03:20:03.564Z,4.83
2022-08-22T03:22:52.716Z,5.07
2022-08-22T03:26:01.115Z,4.87
2022-08-22T03:28:58.933Z,4.57
2022-08-22T03:31:29.011Z,4.60
2022-08-22T03:34:27.181Z,5.07
2022-08-22T03:37:16.290Z,4.80
2022-08-22T03:39:56.963Z,4.83
2022-08-22T03:42:35.927Z,5.60
2022-08-22T03:45:10.248Z,4.27
2022-08-22T03:48:26.340Z,4.60
2022-08-22T03:51:31.540Z,4.83
2022-08-22T03:54:15.386Z,4.53
2022-08-22T03:57:37.275Z,4.90
2022-08-22T04:00:11.398Z,5.03
2022-08-22T04:03:12.940Z,5.30
2022-08-22T04:05:55.663Z,4.70
2022-08-22T04:08:54.875Z,5.00
2022-08-22T04:12:10.576Z,5.20
2022-08-22T04:15:13.196Z,5.67
2022-08-22T04:18:19.200Z,5.87
2022-08-22T04:21:04.857Z,6.37
2022-08-22T04:24:08.530Z,5.60
2022-08-22T04:27:12.916Z,6.00
2022-08-22T04:29:59.776Z,5.60
2022-08-22T04:32:56.291Z,6.23
2022-08-22T04:35:31.153Z,5.50
2022-08-22T04:38:15.675Z,5.37
2022-08-22T04:40:50.339Z,5.33
2022-08-22T04:43:32.815Z,6.17
2022-08-22T04:46:50.731Z,5.80
2022-08-22T04:49:41.455Z,5.47
2022-08-22T04:52:36.623Z,6.00
2022-08-22T04:55:34.906Z,5.57
2022-08-22T04:58:52.010Z,5.53
2022-08-22T05:01:21.983Z,6.00
2022-08-22T05:04:02.325Z,5.97
2022-08-22T05:06:34.143Z,5.77
2022-08-22T05:09:18.839Z,5.53
2022-08-22T05:11:57.626Z,5.33
2022-08-22T05:14:37.143Z,6.50
2022-08-22T05:17:09.226Z,6.33
2022-08-22T05:19:41.811Z,6.07
2022-08-22T05:22:19.892Z,6.20
2022-08-22T05:24:54.188Z,5.30
2022-08-22T05:27:31.999Z,6.53
2022-08-22T05:30:17.243Z,6.20
2022-08-22T05:33:18.624Z,5.80
2022-08-22T05:36:00.415Z,5.70
2022-08-22T05:38:42.956Z,5.67
2022-08-22T05:41:19.281Z,5.87
2022-08-22T05:43:50.561Z,5.53
2022-08-22T05:46:44.263Z,5.67
2022-08-22T05:49:34.439Z,5.10
2022-08-22T05:52:42.499Z,5.33
2022-08-22T05:55:18.108Z,5.03
2022-08-22T05:57:54.461Z,5.30
2022-08-22T06:00:26.870Z,5.20
2022-08-22T06:03:12.871Z,4.73
2022-08-22T06:05:46.252Z,5.07
2022-08-22T06:08:33.024Z,4.70
2022-08-22T06:11:13.575Z,5.10
2022-08-22T06:13:57.562Z,4.77
2022-08-22T06:16:52.553Z,4.73
2022-08-22T06:19:21.585Z,4.63
2022-08-22T06:21:53.169Z,4.90
2022-08-22T06:24:26.371Z,4.90
2022-08-22T06:26:59.545Z,5.30
2022-08-22T06:29:40.007Z,4.53
2022-08-22T06:32:44.922Z,5.27
2022-08-22T06:35:29.798Z,4.30
2022-08-22T06:38:02.067Z,4.53
2022-08-22T06:40:31.879Z,4.73
2022-08-22T06:43:00.598Z,4.70
2022-08-22T06:45:34.193Z,4.40
2022-08-22T06:48:19.055Z,5.10
2022-08-22T06:50:53.549Z,4.67
2022-08-22T06:53:28.430Z,4.80
2022-08-22T06:56:02.732Z,5.63
2022-08-22T06:58:42.061Z,6.27
2022-08-22T07:01:36.261Z,5.03
2022-08-22T07:04:10.642Z,5.73
2022-08-22T07:06:49.276Z,4.20
2022-08-22T07:09:34.730Z,4.40
2022-08-22T07:12:20.682Z,4.40
2022-08-22T07:14:52.624Z,4.67
2022-08-22T07:17:29.135Z,4.63
2022-08-22T07:20:24.851Z,5.27
2022-08-22T07:23:08.357Z,4.83
2022-08-22T07:25:55.345Z,4.37
2022-08-22T07:28:58.466Z,4.00
2022-08-22T07:31:46.609Z,4.17
2022-08-22T07:34:44.762Z,4.80
2022-08-22T07:37:30.748Z,4.43
2022-08-22T07:40:21.771Z,4.10
2022-08-22T07:43:18.861Z,4.67
2022-08-22T07:45:57.013Z,4.60
2022-08-22T07:49:07.762Z,5.40
2022-08-22T07:51:51.684Z,7.93
2022-08-22T07:54:33.099Z,5.33
2022-08-22T07:57:09.726Z,5.13
2022-08-22T07:59:46.856Z,4.83
2022-08-22T08:02:16.889Z,4.10
2022-08-22T08:04:46.077Z,5.57
2022-08-22T08:07:19.069Z,6.90
2022-08-22T08:10:02.999Z,5.70
2022-08-22T08:12:41.628Z,7.23
2022-08-22T08:15:18.318Z,5.83
2022-08-22T08:17:50.389Z,5.83
2022-08-22T08:20:23.862Z,4.37
2022-08-22T08:22:54.124Z,4.77
2022-08-22T08:25:28.555Z,4.17
2022-08-22T08:28:18.146Z,5.20
2022-08-22T08:30:58.368Z,5.13
2022-08-22T08:33:29.885Z,3.93
2022-08-22T08:36:38.520Z,4.60
2022-08-22T08:39:12.648Z,3.27
2022-08-22T08:42:02.153Z,3.80
2022-08-22T08:44:57.028Z,3.17
2022-08-22T08:47:43.884Z,2.43
2022-08-22T08:50:27.826Z,3.10
2022-08-22T08:53:52.977Z,2.43
2022-08-22T08:56:33.562Z,3.00
2022-08-22T08:59:15.327Z,2.60
2022-08-22T09:02:27.276Z,2.80
2022-08-22T09:05:29.913Z,2.87
2022-08-22T09:08:42.434Z,2.80
2022-08-22T09:11:57.998Z,2.53
2022-08-22T09:15:18.026Z,2.00
2022-08-22T09:17:46.578Z,2.20
2022-08-22T09:20:47.730Z,2.10
2022-08-22T09:23:55.977Z,2.60
2022-08-22T09:26:28.255Z,2.10
2022-08-22T09:29:24.823Z,2.10
2022-08-22T09:32:00.094Z,2.73
2022-08-22T09:34:50.040Z,1.97
2022-08-22T09:37:21.332Z,1.57
2022-08-22T09:43:02.876Z,2.60
2022-08-22T09:45:43.170Z,1.77
2022-08-22T09:48:38.830Z,1.60
2022-08-22T09:51:54.338Z,1.70
2022-08-22T09:54:49.679Z,1.40
2022-08-22T09:57:38.884Z,1.50
2022-08-22T10:00:09.213Z,1.50
2022-08-22T10:02:56.229Z,1.87
2022-08-22T10:05:46.434Z,1.80
2022-08-22T10:08:41.563Z,1.87
2022-08-22T10:11:31.849Z,2.03
2022-08-22T10:14:25.570Z,1.73
2022-08-22T10:17:07.250Z,1.50
2022-08-22T10:19:53.710Z,2.00
2022-08-22T10:22:47.416Z,2.17
2022-08-22T10:25:44.877Z,2.20
2022-08-22T10:28:37.845Z,2.00
2022-08-22T10:31:31.007Z,1.80
2022-08-22T10:34:16.384Z,1.73
2022-08-22T10:37:00.928Z,1.87
2022-08-22T10:39:43.991Z,2.07
2022-08-22T10:42:28.596Z,1.90
2022-08-22T10:45:37.063Z,1.90
2022-08-22T10:48:17.504Z,1.70
2022-08-22T10:50:53.238Z,2.10
2022-08-22T10:54:01.066Z,2.17
2022-08-22T10:56:36.472Z,1.70
2022-08-22T10:59:28.229Z,1.60
2022-08-22T11:02:44.744Z,1.83
2022-08-22T11:05:16.179Z,2.00
2022-08-22T11:08:26.663Z,1.93
2022-08-22T11:11:18.239Z,2.07
2022-08-22T11:14:03.113Z,1.90
2022-08-22T11:17:00.623Z,1.73
2022-08-22T11:19:58.674Z,1.87
2022-08-22T11:22:34.775Z,2.10
2022-08-22T11:25:39.146Z,2.27
2022-08-22T11:28:48.325Z,2.33
2022-08-22T11:31:36.758Z,1.93
2022-08-22T11:34:05.162Z,2.17
2022-08-22T11:36:55.547Z,1.63
2022-08-22T11:39:35.878Z,2.17
2022-08-22T11:42:26.123Z,2.30
2022-08-22T11:45:01.639Z,2.60
2022-08-22T11:47:35.216Z,1.93
2022-08-22T11:50:35.196Z,1.97
2022-08-22T11:53:43.255Z,2.10
2022-08-22T11:56:36.684Z,2.17
2022-08-22T11:59:47.733Z,2.13
2022-08-22T12:02:39.431Z,2.33
2022-08-22T12:05:35.678Z,2.00
2022-08-22T12:08:28.353Z,2.00
2022-08-22T12:11:12.516Z,1.80
2022-08-22T12:14:09.402Z,1.80
2022-08-22T12:17:55.714Z,1.80
2022-08-22T12:21:33.994Z,1.93
2022-08-22T12:24:45.834Z,2.03
2022-08-22T12:27:34.622Z,2.10
2022-08-22T12:30:29.987Z,1.87
2022-08-22T12:33:40.994Z,2.20
2022-08-22T12:36:26.457Z,2.03
2022-08-22T12:39:04.383Z,2.17
2022-08-22T12:42:19.367Z,2.20
2022-08-22T12:45:25.530Z,2.40
2022-08-22T12:48:08.934Z,2.17
2022-08-22T12:50:57.170Z,1.93
2022-08-22T12:53:57.988Z,2.40
2022-08-22T12:57:04.274Z,1.80
2022-08-22T12:59:58.074Z,2.10
2022-08-22T13:02:32.708Z,2.23
2022-08-22T13:05:20.052Z,2.20
2022-08-22T13:08:04.319Z,2.40
2022-08-22T13:10:58.291Z,2.23
2022-08-22T13:13:37.109Z,2.50
2022-08-22T13:16:11.989Z,2.23
2022-08-22T13:19:07.714Z,2.30
2022-08-22T13:21:48.380Z,2.37
2022-08-22T13:24:38.691Z,2.30
2022-08-22T13:27:15.628Z,2.50
2022-08-22T13:30:02.376Z,2.37
2022-08-22T13:32:44.465Z,2.50
2022-08-22T13:35:35.207Z,2.37
2022-08-22T13:38:22.068Z,1.90
2022-08-22T13:40:57.843Z,2.10
2022-08-22T13:43:35.743Z,2.53
2022-08-22T13:46:10.874Z,1.90
2022-08-22T13:48:55.722Z,2.17
2022-08-22T13:51:35.953Z,2.67
2022-08-22T13:54:12.705Z,2.67
2022-08-22T13:57:03.204Z,2.07
2022-08-22T13:59:52.448Z,2.20
2022-08-22T14:02:30.977Z,1.80
2022-08-22T14:05:07.316Z,2.00
2022-08-22T14:08:04.793Z,1.97
2022-08-22T14:10:50.526Z,1.87
2022-08-22T14:13:48.435Z,1.90
2022-08-22T14:16:25.226Z,2.00
2022-08-22T14:19:00.647Z,2.27
2022-08-22T14:21:55.967Z,2.50
2022-08-22T14:24:45.578Z,2.17
2022-08-22T14:27:57.758Z,2.20
2022-08-22T14:30:59.409Z,2.20
2022-08-22T14:33:51.343Z,2.00
2022-08-22T14:36:29.352Z,2.10
2022-08-22T14:39:24.608Z,2.03
2022-08-22T14:42:04.111Z,2.30
2022-08-22T14:45:08.387Z,2.50
2022-08-22T14:47:55.290Z,2.10
2022-08-22T14:50:53.869Z,2.20
2022-08-22T14:53:25.114Z,2.03
2022-08-22T14:56:18.060Z,1.97
2022-08-22T14:58:59.683Z,1.90
2022-08-22T15:01:34.121Z,2.20
2022-08-22T15:04:09.990Z,2.00
2022-08-22T15:06:47.831Z,6.50
2022-08-22T15:09:58.533Z,2.63
2022-08-22T15:12:38.880Z,2.30
2022-08-22T15:15:16.862Z,1.93
2022-08-22T15:17:50.805Z,2.00
2022-08-22T15:20:49.354Z,2.00
2022-08-22T15:23:24.845Z,2.30
2022-08-22T15:26:13.219Z,2.30
2022-08-22T15:28:52.367Z,2.07
2022-08-22T15:31:24.571Z,2.30
2022-08-22T15:33:53.259Z,1.97
2022-08-22T15:36:24.538Z,2.50
2022-08-22T15:38:57.201Z,2.37
2022-08-22T15:41:36.906Z,2.20
2022-08-22T15:44:32.981Z,2.13
2022-08-22T15:47:27.638Z,1.93
2022-08-22T15:50:05.433Z,2.33
2022-08-22T15:53:17.590Z,1.90
2022-08-22T15:56:30.194Z,2.30
2022-08-22T15:59:53.991Z,2.53
2022-08-22T16:02:36.809Z,2.03
2022-08-22T16:05:11.785Z,2.07
2022-08-22T16:08:33.501Z,2.40
2022-08-22T16:11:05.437Z,2.43
2022-08-22T16:13:43.275Z,2.07
2022-08-22T16:17:28.753Z,2.43
2022-08-22T16:20:19.211Z,2.33
2022-08-22T16:23:00.068Z,2.43
2022-08-22T16:25:46.357Z,2.50
2022-08-22T16:28:57.892Z,2.60
2022-08-22T16:31:52.887Z,2.40
2022-08-22T16:34:48.084Z,2.40
2022-08-22T16:37:18.024Z,2.40
2022-08-22T16:40:00.982Z,2.20
2022-08-22T16:42:35.545Z,2.50
2022-08-22T16:45:05.324Z,2.10
2022-08-22T16:47:34.167Z,2.23
2022-08-22T16:50:07.658Z,2.23
2022-08-22T16:52:38.742Z,2.20
2022-08-22T16:55:31.356Z,2.20
2022-08-22T16:58:08.154Z,2.00
2022-08-22T17:01:04.465Z,2.07
2022-08-22T17:04:06.958Z,2.17
2022-08-22T17:07:22.932Z,2.00
2022-08-22T17:10:32.218Z,1.90
2022-08-22T17:13:27.690Z,2.07
2022-08-22T17:16:03.317Z,1.80
2022-08-22T17:18:59.022Z,1.90
2022-08-22T17:21:53.862Z,2.03
2022-08-22T17:24:48.662Z,1.87
2022-08-22T17:27:35.139Z,2.13
2022-08-22T17:30:31.860Z,1.87
2022-08-22T17:33:54.318Z,1.83
2022-08-22T17:37:18.283Z,1.80
2022-08-22T17:40:17.206Z,1.90
2022-08-22T17:43:03.850Z,2.00
2022-08-22T17:46:03.130Z,2.10
2022-08-22T17:48:52.151Z,1.80
2022-08-22T17:51:55.199Z,1.77
2022-08-22T17:54:38.054Z,2.20
2022-08-22T18:01:55.159Z,2.10
2022-08-22T18:05:04.672Z,2.00
2022-08-22T18:11:40.310Z,1.87
2022-08-22T18:14:33.622Z,1.93
2022-08-22T18:17:02.073Z,2.43
2022-08-22T18:20:37.009Z,2.00
2022-08-22T18:23:21.248Z,1.70
2022-08-22T18:26:05.647Z,2.07
2022-08-22T18:28:50.179Z,1.80
2022-08-22T18:31:48.036Z,1.97
2022-08-22T18:34:20.116Z,2.23
2022-08-22T18:37:05.446Z,1.93
2022-08-22T18:40:05.900Z,1.70
2022-08-22T18:42:46.828Z,1.83
2022-08-22T18:45:49.771Z,1.90
2022-08-22T18:49:11.653Z,2.00
2022-08-22T18:51:38.327Z,2.00
2022-08-22T18:54:07.099Z,2.40
2022-08-22T18:56:54.078Z,2.37
2022-08-22T18:59:47.728Z,2.07
2022-08-22T19:02:41.931Z,2.50
2022-08-22T19:05:46.309Z,2.43
2022-08-22T19:08:35.180Z,2.57
2022-08-22T19:11:38.786Z,2.33
2022-08-22T19:14:09.876Z,2.80
2022-08-22T19:17:05.005Z,2.57
2022-08-22T19:20:22.617Z,2.60
2022-08-22T19:22:51.384Z,2.70
2022-08-22T19:25:55.650Z,3.20
2022-08-22T19:28:43.663Z,2.90
2022-08-22T19:31:38.900Z,3.03
2022-08-22T19:34:30.663Z,3.30
2022-08-22T19:37:32.613Z,2.80
2022-08-22T19:40:16.115Z,3.40
2022-08-22T19:42:49.875Z,3.60
2022-08-22T19:45:28.883Z,3.50
2022-08-22T19:48:13.126Z,3.13
2022-08-22T19:50:44.956Z,7.23
2022-08-22T19:53:51.038Z,5.23
2022-08-22T19:56:19.665Z,3.93
2022-08-22T19:59:26.762Z,4.27
2022-08-22T20:02:07.074Z,3.67
2022-08-22T20:05:24.103Z,3.80
2022-08-22T20:08:31.444Z,3.97
2022-08-22T20:11:28.207Z,3.13
2022-08-22T20:14:24.981Z,3.17
2022-08-22T20:16:59.328Z,3.97
2022-08-22T20:22:39.786Z,3.17
2022-08-22T20:25:42.792Z,3.23
2022-08-22T20:28:34.359Z,3.50
2022-08-22T20:31:07.616Z,3.50
2022-08-22T20:33:41.183Z,4.03
2022-08-22T20:36:18.614Z,3.20
2022-08-22T20:39:06.465Z,3.57
2022-08-22T20:41:43.233Z,3.67
2022-08-22T20:44:24.105Z,3.80
2022-08-22T20:47:32.335Z,3.47
2022-08-22T20:50:12.279Z,3.27
2022-08-22T20:52:54.370Z,3.03
2022-08-22T20:55:31.731Z,3.20
2022-08-22T20:58:04.534Z,3.50
2022-08-22T21:00:44.202Z,3.13
2022-08-22T21:04:08.435Z,3.00
2022-08-22T21:06:35.005Z,4.87
2022-08-22T21:09:40.238Z,3.30
2022-08-22T21:12:09.438Z,3.33
2022-08-22T21:14:44.560Z,3.20
2022-08-22T21:17:23.010Z,3.37
2022-08-22T21:19:51.811Z,3.10
2022-08-22T21:22:32.258Z,3.03
2022-08-22T21:25:02.208Z,3.03
2022-08-22T21:27:35.591Z,3.33
2022-08-22T21:30:08.417Z,2.83
2022-08-22T21:32:43.633Z,3.10
2022-08-22T21:35:30.284Z,2.90
2022-08-22T21:38:01.006Z,3.40
2022-08-22T21:40:39.566Z,3.40
2022-08-22T21:43:07.960Z,3.17
2022-08-22T21:45:39.012Z,3.50
2022-08-22T21:49:01.206Z,3.30
2022-08-22T21:51:37.409Z,3.77
2022-08-22T21:54:28.039Z,3.53
2022-08-22T21:57:00.198Z,3.30
2022-08-22T21:59:51.868Z,3.50
2022-08-22T22:02:43.866Z,3.77
2022-08-22T22:05:18.312Z,3.53
2022-08-22T22:07:48.711Z,4.00
2022-08-22T22:10:21.107Z,4.30
2022-08-22T22:12:51.881Z,3.53
2022-08-22T22:15:24.787Z,4.10
2022-08-22T22:17:53.827Z,3.50
2022-08-22T22:20:26.196Z,4.10
2022-08-22T22:22:55.164Z,4.10
2022-08-22T22:25:40.759Z,4.30
2022-08-22T22:28:25.104Z,4.53
2022-08-22T22:30:54.230Z,4.47
2022-08-22T22:33:26.331Z,4.20
2022-08-22T22:35:59.030Z,3.70
2022-08-22T22:38:27.586Z,4.10
2022-08-22T22:40:55.952Z,4.10
2022-08-22T22:43:24.380Z,4.00
2022-08-22T22:45:52.815Z,4.23
2022-08-22T22:48:24.251Z,4.30
2022-08-22T22:50:54.164Z,4.00
2022-08-22T22:53:38.593Z,4.50
2022-08-22T22:56:13.019Z,4.53
2022-08-22T22:58:42.386Z,4.13
2022-08-22T23:01:25.248Z,3.83
2022-08-22T23:04:05.445Z,4.00
2022-08-22T23:06:34.696Z,3.93
2022-08-22T23:09:03.260Z,3.90
2022-08-22T23:11:32.305Z,3.60
2022-08-22T23:14:02.070Z,4.40
2022-08-22T23:16:36.963Z,4.27
2022-08-22T23:19:10.618Z,4.13
2022-08-22T23:21:39.072Z,3.70
2022-08-22T23:24:07.905Z,4.10
2022-08-22T23:26:37.004Z,4.43
2022-08-22T23:29:05.900Z,3.60
2022-08-22T23:31:40.069Z,3.70
2022-08-22T23:34:15.743Z,4.17
2022-08-22T23:36:47.413Z,4.40
2022-08-22T23:39:17.461Z,3.97
2022-08-22T23:41:47.371Z,3.70
2022-08-22T23:44:19.423Z,3.63
2022-08-22T23:46:48.284Z,3.80
2022-08-22T23:49:17.057Z,4.23
2022-08-22T23:51:47.132Z,3.90
2022-08-22T23:54:16.500Z,4.13
2022-08-22T23:56:55.742Z,4.30
2022-08-22T23:59:31.021Z,3.90
